Time;durP1;ratioP1;P1;durP2;ratioP2;P2;SDS_P1;SDS_P2;PMS_P1;PMS_P2;Temp;Humidity;BMP_temperature;BMP_pressure;BME280_temperature;BME280_humidity;BME280_pressure;Samples;Min_cycle;Max_cycle;Signal;HPM_P1;HPM_P2
2022/10/01 00:01:39;;;;;;;9.70;7.18;;;;;;;9.05;91.63;97820.84;4195876;28;20296;-84
2022/10/01 00:03:43;;;;;;;10.13;7.60;;;;;;;9.04;92.42;97813.97;4190449;28;20279;-83
2022/10/01 00:05:46;;;;;;;8.40;7.40;;;;;;;9.01;91.87;97821.97;4194557;28;20632;-83
2022/10/01 00:07:49;;;;;;;10.70;7.50;;;;;;;8.98;91.94;97819.59;4194007;28;20259;-83
2022/10/01 00:09:52;;;;;;;7.38;6.60;;;;;;;8.95;91.32;97822.38;4177100;28;20766;-83
2022/10/01 00:11:55;;;;;;;8.73;7.07;;;;;;;8.94;91.29;97830.28;4194164;28;20689;-83
2022/10/01 00:13:58;;;;;;;10.27;7.10;;;;;;;8.94;92.33;97838.09;4203548;28;20228;-83
2022/10/01 00:16:04;;;;;;;9.50;7.50;;;;;;;8.92;91.63;97839.16;4193510;28;20253;-83
2022/10/01 00:18:09;;;;;;;8.88;6.85;;;;;;;8.91;92.21;97830.50;4193173;28;20204;-83
2022/10/01 00:20:12;;;;;;;8.25;7.03;;;;;;;8.90;92.97;97830.59;4195990;28;20416;-84
2022/10/01 00:22:17;;;;;;;10.60;6.85;;;;;;;8.90;92.37;97823.66;4192341;28;20201;-84
2022/10/01 00:24:20;;;;;;;8.90;7.38;;;;;;;8.88;92.54;97819.47;4178268;28;20210;-84
2022/10/01 00:26:26;;;;;;;8.15;7.25;;;;;;;8.86;91.42;97814.38;4209361;28;20201;-83
2022/10/01 00:28:29;;;;;;;11.98;7.75;;;;;;;8.83;92.25;97814.56;4195699;28;20304;-83
2022/10/01 00:30:33;;;;;;;11.93;7.37;;;;;;;8.81;92.84;97806.06;4194811;28;20206;-84
2022/10/01 00:32:42;;;;;;;9.88;7.68;;;;;;;8.79;91.80;97805.28;4195760;28;20665;-83
2022/10/01 00:34:46;;;;;;;10.70;7.77;;;;;;;8.76;92.01;97804.69;4192752;28;20205;-84
2022/10/01 00:36:49;;;;;;;12.95;7.35;;;;;;;8.70;90.73;97802.47;4193993;28;21232;-83
2022/10/01 00:38:53;;;;;;;9.10;6.97;;;;;;;8.67;91.83;97798.28;4184190;28;20206;-84
2022/10/01 00:40:56;;;;;;;9.37;7.10;;;;;;;8.65;92.12;97807.16;4180716;28;20230;-83
2022/10/01 00:42:59;;;;;;;10.27;7.40;;;;;;;8.66;92.44;97820.03;4195634;28;20623;-83
2022/10/01 00:45:02;;;;;;;11.37;7.77;;;;;;;8.70;93.30;97820.66;4178740;28;20237;-83
2022/10/01 00:47:10;;;;;;;11.65;8.45;;;;;;;8.71;92.49;97817.97;4176344;28;20630;-83
2022/10/01 00:49:15;;;;;;;8.52;7.05;;;;;;;8.71;92.17;97807.56;4194861;28;20303;-83
2022/10/01 00:51:20;;;;;;;7.47;6.78;;;;;;;8.68;91.83;97809.56;4188830;28;20216;-84
2022/10/01 00:53:24;;;;;;;10.48;7.07;;;;;;;8.66;92.30;97816.59;4192259;28;20701;-83
2022/10/01 00:55:30;;;;;;;10.90;7.20;;;;;;;8.61;92.17;97809.09;4195412;28;20209;-83
2022/10/01 00:57:34;;;;;;;9.73;7.68;;;;;;;8.61;92.38;97810.88;4195629;28;20647;-83
2022/10/01 00:59:37;;;;;;;9.88;7.20;;;;;;;8.59;92.08;97817.94;4191703;28;20210;-83
2022/10/01 01:01:40;;;;;;;9.60;7.25;;;;;;;8.56;92.76;97812.94;4191942;28;20252;-83
2022/10/01 01:03:44;;;;;;;9.00;7.70;;;;;;;8.58;91.88;97817.09;4189589;28;20220;-83
2022/10/01 01:05:49;;;;;;;9.23;6.95;;;;;;;8.58;92.27;97817.09;4198597;28;20354;-83
2022/10/01 01:07:53;;;;;;;10.15;7.07;;;;;;;8.57;93.15;97820.66;4193362;28;20210;-83
2022/10/01 01:09:56;;;;;;;8.88;7.28;;;;;;;8.58;93.58;97818.88;4194411;28;20288;-83
2022/10/01 01:12:06;;;;;;;10.10;7.80;;;;;;;8.56;92.91;97811.16;4194456;28;20249;-83
2022/10/01 01:14:16;;;;;;;8.57;6.72;;;;;;;8.53;91.82;97819.16;4200261;28;20631;-83
2022/10/01 01:16:24;;;;;;;9.68;7.60;;;;;;;8.51;92.70;97810.63;4187308;28;20572;-83
2022/10/01 01:18:31;;;;;;;8.00;6.43;;;;;;;8.47;92.46;97806.56;4188525;28;20212;-84
2022/10/01 01:20:50;;;;;;;8.77;7.07;;;;;;;8.44;91.64;97809.34;4196676;28;20202;-83
2022/10/01 01:23:10;;;;;;;9.23;6.82;;;;;;;8.43;92.70;97800.84;4192696;28;20638;-83
2022/10/01 01:25:17;;;;;;;9.60;7.20;;;;;;;8.39;91.93;97800.22;4213269;28;20204;-84
2022/10/01 01:27:26;;;;;;;9.07;7.55;;;;;;;8.37;92.66;97802.06;4194270;28;20288;-83
2022/10/01 01:29:36;;;;;;;9.98;7.25;;;;;;;8.34;92.80;97801.44;4198185;28;20233;-83
2022/10/01 01:31:41;;;;;;;8.65;6.20;;;;;;;8.32;91.71;97811.09;4191963;28;20735;-83
2022/10/01 01:33:46;;;;;;;11.25;7.35;;;;;;;8.35;92.80;97805.69;4173760;28;20210;-84
2022/10/01 01:35:51;;;;;;;7.90;6.55;;;;;;;8.34;92.54;97796.22;4187880;28;20200;-83
2022/10/01 01:37:59;;;;;;;8.30;6.78;;;;;;;8.34;93.72;97794.47;4188869;28;20245;-84
2022/10/01 01:40:04;;;;;;;10.48;7.07;;;;;;;8.33;93.32;97784.16;4209388;28;20211;-83
2022/10/01 01:42:13;;;;;;;8.35;6.47;;;;;;;8.33;92.50;97781.56;4189480;28;20293;-83
2022/10/01 01:44:18;;;;;;;9.05;7.07;;;;;;;8.31;92.66;97780.84;4207709;28;20252;-83
2022/10/01 01:46:30;;;;;;;9.40;6.95;;;;;;;8.32;93.08;97778.16;4191568;28;20211;-83
2022/10/01 01:48:35;;;;;;;9.85;7.47;;;;;;;8.32;93.81;97767.75;4194123;28;20668;-83
2022/10/01 01:50:45;;;;;;;9.18;7.13;;;;;;;8.33;94.34;97766.84;4193307;28;20194;-83
2022/10/01 01:52:48;;;;;;;9.43;6.78;;;;;;;8.32;93.37;97762.56;4195879;28;20283;-83
2022/10/01 01:54:51;;;;;;;11.10;7.07;;;;;;;8.30;92.72;97759.25;4191175;28;20232;-83
2022/10/01 01:56:57;;;;;;;8.52;6.15;;;;;;;8.26;91.59;97756.94;4190339;28;20227;-83
2022/10/01 01:59:00;;;;;;;11.35;6.75;;;;;;;8.23;92.70;97751.94;4192715;28;20289;-84
2022/10/01 02:01:04;;;;;;;7.80;7.00;;;;;;;8.22;91.88;97750.25;4190229;28;20932;-83
2022/10/01 02:03:10;;;;;;;9.00;7.00;;;;;;;8.23;92.96;97755.34;4178184;28;20782;-83
2022/10/01 02:05:15;;;;;;;9.23;7.95;;;;;;;8.26;93.92;97746.53;4191892;28;20217;-84
2022/10/01 02:07:28;;;;;;;8.00;7.18;;;;;;;8.25;92.72;97745.69;4196275;28;20303;-83
2022/10/01 02:09:35;;;;;;;8.60;7.25;;;;;;;8.25;92.96;97737.91;4189119;28;20662;-83
2022/10/01 02:11:44;;;;;;;8.25;6.63;;;;;;;8.26;92.75;97742.16;4189144;28;20224;-83
2022/10/01 02:13:54;;;;;;;9.45;6.97;;;;;;;8.26;92.80;97742.16;4191714;28;20213;-83
2022/10/01 02:16:03;;;;;;;7.28;6.10;;;;;;;8.23;93.65;97731.97;4189010;28;20364;-84
2022/10/01 02:18:12;;;;;;;8.68;7.32;;;;;;;8.20;92.16;97736.56;4191517;28;20656;-83
2022/10/01 02:20:20;;;;;;;10.63;7.05;;;;;;;8.17;92.20;97729.78;4193471;28;20561;-83
2022/10/01 02:22:25;;;;;;;8.30;7.10;;;;;;;8.17;93.50;97731.56;4186655;28;20208;-83
2022/10/01 02:24:34;;;;;;;12.73;7.40;;;;;;;8.20;93.42;97737.38;4191313;28;20204;-83
2022/10/01 02:26:39;;;;;;;10.85;7.05;;;;;;;8.21;92.69;97739.06;4190393;28;20248;-83
2022/10/01 02:28:43;;;;;;;9.02;7.05;;;;;;;8.22;93.19;97737.28;4193546;28;20197;-83
2022/10/01 02:30:46;;;;;;;8.70;7.35;;;;;;;8.23;94.03;97737.19;4189623;28;20337;-83
2022/10/01 02:32:50;;;;;;;7.32;6.28;;;;;;;8.23;94.38;97737.19;4189493;28;20202;-83
2022/10/01 02:34:55;;;;;;;7.97;6.70;;;;;;;8.24;93.42;97735.41;4188109;28;20204;-84
2022/10/01 02:36:59;;;;;;;14.95;7.95;;;;;;;8.24;94.13;97738.84;4179736;28;20218;-83
2022/10/01 02:39:03;;;;;;;11.50;7.22;;;;;;;8.24;94.68;97736.25;4194029;28;20202;-84
2022/10/01 02:41:10;;;;;;;11.27;7.70;;;;;;;8.26;94.55;97733.56;4195041;28;20205;-83
2022/10/01 02:43:18;;;;;;;9.20;7.65;;;;;;;8.28;94.81;97729.91;4194632;28;20336;-83
2022/10/01 02:45:22;;;;;;;10.07;7.78;;;;;;;8.31;93.68;97728.88;4186412;28;20767;-83
2022/10/01 02:47:32;;;;;;;12.98;7.70;;;;;;;8.33;93.56;97735.66;4188959;28;20202;-83
2022/10/01 02:49:36;;;;;;;8.85;7.13;;;;;;;8.34;93.36;97734.72;4194434;28;20731;-83
2022/10/01 02:51:47;;;;;;;8.00;6.68;;;;;;;8.31;93.25;97742.69;4190684;28;20235;-84
2022/10/01 02:53:53;;;;;;;10.10;6.90;;;;;;;8.29;92.51;97728.16;4196464;28;20217;-83
2022/10/01 02:55:57;;;;;;;10.00;7.10;;;;;;;8.27;94.41;97727.41;4193873;28;20228;-83
2022/10/01 02:57:59;;;;;;;10.55;7.38;;;;;;;8.24;93.32;97733.66;4189376;28;20232;-84
2022/10/01 03:00:05;;;;;;;9.40;6.90;;;;;;;8.23;93.32;97734.56;4194659;28;20241;-83
2022/10/01 03:02:08;;;;;;;8.30;6.60;;;;;;;8.20;94.37;97734.78;4193523;28;20239;-84
2022/10/01 03:04:12;;;;;;;8.30;6.90;;;;;;;8.23;94.65;97731.97;4191881;28;20289;-83
2022/10/01 03:06:15;;;;;;;11.73;7.05;;;;;;;8.26;94.75;97731.78;4196719;28;20552;-83
2022/10/01 03:08:19;;;;;;;9.65;7.20;;;;;;;8.29;93.80;97735.97;4198315;28;20315;-83
2022/10/01 03:10:22;;;;;;;9.02;7.35;;;;;;;8.32;93.56;97746.97;4191453;28;20301;-83
2022/10/01 03:12:25;;;;;;;10.02;7.60;;;;;;;8.33;94.28;97735.66;4197050;28;20256;-83
2022/10/01 03:14:28;;;;;;;10.18;7.13;;;;;;;8.33;93.83;97740.84;4195340;28;20303;-83
2022/10/01 03:16:31;;;;;;;8.93;7.22;;;;;;;8.35;94.61;97738.97;4188039;28;20210;-83
2022/10/01 03:18:34;;;;;;;12.05;6.97;;;;;;;8.33;95.26;97740.00;4197353;28;20227;-84
2022/10/01 03:20:37;;;;;;;10.48;7.45;;;;;;;8.30;94.84;97728.06;4192464;28;20225;-83
2022/10/01 03:22:40;;;;;;;8.50;6.88;;;;;;;8.30;94.45;97733.25;4171403;28;20298;-83
2022/10/01 03:24:44;;;;;;;8.63;7.05;;;;;;;8.32;93.70;97730.56;4186729;28;20297;-83
2022/10/01 03:26:48;;;;;;;8.15;6.70;;;;;;;8.30;94.31;97727.22;4193922;28;20202;-83
2022/10/01 03:28:50;;;;;;;9.80;7.55;;;;;;;8.31;94.64;97714.13;4196475;28;20198;-84
2022/10/01 03:31:04;;;;;;;9.27;7.50;;;;;;;8.32;95.20;97717.56;4192414;28;20216;-83
2022/10/01 03:33:07;;;;;;;10.32;6.97;;;;;;;8.32;93.65;97715.81;4192478;28;20212;-82
2022/10/01 03:35:11;;;;;;;9.25;6.45;;;;;;;8.32;94.29;97713.19;4192758;28;20277;-82
2022/10/01 03:37:14;;;;;;;8.63;7.20;;;;;;;8.33;93.95;97707.09;4193882;28;20253;-81
2022/10/01 03:39:17;;;;;;;7.90;6.60;;;;;;;8.34;93.81;97710.50;4180488;28;20229;-81
2022/10/01 03:41:22;;;;;;;8.45;7.32;;;;;;;8.34;93.87;97710.50;4191147;28;20689;-82
2022/10/01 03:43:27;;;;;;;11.05;7.05;;;;;;;8.33;93.72;97714.88;4196459;28;20300;-81
2022/10/01 03:45:31;;;;;;;10.48;7.70;;;;;;;8.38;95.21;97717.19;4190045;28;20688;-82
2022/10/01 03:47:33;;;;;;;9.50;7.03;;;;;;;8.37;95.23;97729.31;4190612;28;20288;-81
2022/10/01 03:49:37;;;;;;;9.57;7.65;;;;;;;8.35;94.09;97726.00;4190222;28;20200;-81
2022/10/01 03:51:40;;;;;;;8.82;7.20;;;;;;;8.38;94.62;97720.59;4179633;28;20230;-81
2022/10/01 03:53:43;;;;;;;10.27;6.90;;;;;;;8.39;94.23;97716.22;4192644;28;20219;-81
2022/10/01 03:55:46;;;;;;;8.27;7.15;;;;;;;8.38;94.46;97715.41;4194802;28;20209;-81
2022/10/01 03:57:51;;;;;;;9.23;6.70;;;;;;;8.38;94.92;97705.00;4179444;28;20240;-81
2022/10/01 03:59:53;;;;;;;9.27;7.05;;;;;;;8.36;93.91;97709.47;4191632;28;20225;-81
2022/10/01 04:01:56;;;;;;;7.95;7.15;;;;;;;8.36;95.08;97706.03;4193359;28;20296;-81
2022/10/01 04:04:00;;;;;;;9.60;7.45;;;;;;;8.37;93.74;97703.34;4181087;28;20660;-82
2022/10/01 04:06:02;;;;;;;10.65;6.63;;;;;;;8.39;94.23;97700.63;4193302;28;20292;-82
2022/10/01 04:08:05;;;;;;;8.60;7.65;;;;;;;8.40;94.39;97702.31;4190629;28;20259;-81
2022/10/01 04:10:09;;;;;;;9.77;7.00;;;;;;;8.38;95.08;97699.81;4193304;28;20261;-81
2022/10/01 04:12:12;;;;;;;10.07;7.35;;;;;;;8.38;95.30;97692.00;4193163;28;20597;-81
2022/10/01 04:14:16;;;;;;;9.27;7.00;;;;;;;8.39;93.67;97693.69;4190781;28;20204;-81
2022/10/01 04:16:19;;;;;;;8.82;6.63;;;;;;;8.39;94.49;97696.28;4177215;28;20300;-81
2022/10/01 04:18:22;;;;;;;9.75;7.30;;;;;;;8.39;95.12;97685.91;4192605;28;20267;-81
2022/10/01 04:20:26;;;;;;;11.57;7.43;;;;;;;8.42;94.42;97688.28;4192950;28;20217;-82
2022/10/01 04:22:29;;;;;;;10.60;7.28;;;;;;;8.42;94.82;97690.91;4194514;28;20287;-81
2022/10/01 04:24:32;;;;;;;9.73;6.72;;;;;;;8.43;95.13;97689.94;4196043;28;20233;-82
2022/10/01 04:26:35;;;;;;;8.93;7.50;;;;;;;8.47;94.70;97694.00;4190217;28;20239;-81
2022/10/01 04:28:38;;;;;;;11.20;6.40;;;;;;;8.47;95.62;97696.59;4184799;28;20212;-82
2022/10/01 04:30:43;;;;;;;9.18;6.80;;;;;;;8.45;94.51;97685.50;4192834;28;20295;-81
2022/10/01 04:32:46;;;;;;;7.70;6.38;;;;;;;8.43;94.53;97682.13;4189690;28;20205;-81
2022/10/01 04:34:54;;;;;;;15.32;7.55;;;;;;;8.41;93.77;97685.78;4191610;28;20242;-81
2022/10/01 04:36:57;;;;;;;14.30;7.60;;;;;;;8.39;94.54;97678.09;4178023;28;20260;-81
2022/10/01 04:39:00;;;;;;;9.93;7.30;;;;;;;8.37;94.71;97682.53;4190636;28;20305;-81
2022/10/01 04:41:05;;;;;;;9.38;7.70;;;;;;;8.36;94.36;97675.72;4178351;28;20213;-82
2022/10/01 04:43:08;;;;;;;10.25;6.50;;;;;;;8.38;94.41;97678.22;4194441;28;20224;-83
2022/10/01 04:45:12;;;;;;;15.63;7.28;;;;;;;8.39;95.14;97670.31;4191947;28;20231;-84
2022/10/01 04:47:16;;;;;;;13.85;7.60;;;;;;;8.38;95.17;97668.63;4194430;28;20307;-81
2022/10/01 04:49:19;;;;;;;14.93;8.95;;;;;;;8.37;94.63;97679.94;4189452;28;20241;-82
2022/10/01 04:51:22;;;;;;;13.32;8.10;;;;;;;8.36;94.25;97675.72;4166731;28;20210;-82
2022/10/01 04:53:25;;;;;;;16.13;13.10;;;;;;;8.36;93.56;97678.31;4194622;28;20206;-82
2022/10/01 04:55:28;;;;;;;15.98;12.70;;;;;;;8.39;93.92;97677.25;4171201;28;20202;-81
2022/10/01 04:57:31;;;;;;;18.67;12.88;;;;;;;8.45;94.29;97675.09;4185891;28;20262;-82
2022/10/01 04:59:34;;;;;;;12.23;8.63;;;;;;;8.50;94.32;97673.03;4207516;28;20273;-84
2022/10/01 05:01:37;;;;;;;10.75;7.85;;;;;;;8.54;95.14;97677.91;4178233;28;20741;-82
2022/10/01 05:03:42;;;;;;;15.50;10.82;;;;;;;8.59;94.87;97675.00;4195124;28;20205;-83
2022/10/01 05:05:45;;;;;;;14.85;9.45;;;;;;;8.60;95.57;97684.44;4188297;28;20233;-83
2022/10/01 05:07:49;;;;;;;9.63;7.95;;;;;;;8.64;95.48;97671.13;4193389;28;20241;-83
2022/10/01 05:09:52;;;;;;;10.18;7.72;;;;;;;8.66;95.73;97676.22;4187949;28;20227;-83
2022/10/01 05:11:55;;;;;;;8.63;7.10;;;;;;;8.67;94.55;97670.09;4198698;28;20262;-83
2022/10/01 05:13:58;;;;;;;9.50;6.80;;;;;;;8.72;94.77;97678.41;4192403;28;20205;-83
2022/10/01 05:16:02;;;;;;;6.45;5.57;;;;;;;8.81;95.82;97678.66;4190710;28;20655;-83
2022/10/01 05:18:06;;;;;;;8.45;6.25;;;;;;;8.94;95.67;97679.47;4187377;28;20213;-83
2022/10/01 05:20:16;;;;;;;13.82;10.65;;;;;;;9.00;95.10;97679.88;4193076;28;20705;-83
2022/10/01 05:22:19;;;;;;;14.57;7.60;;;;;;;9.01;95.78;97681.53;4173964;28;20296;-83
2022/10/01 05:24:22;;;;;;;10.68;7.32;;;;;;;9.05;95.70;97676.94;4192036;28;20453;-83
2022/10/01 05:26:26;;;;;;;8.00;6.60;;;;;;;9.07;95.41;97681.13;4189958;28;20225;-83
2022/10/01 05:28:29;;;;;;;10.88;6.75;;;;;;;9.08;95.18;97685.41;4192734;28;20209;-83
2022/10/01 05:30:32;;;;;;;9.88;6.70;;;;;;;9.08;96.46;97684.53;4193452;28;20344;-83
2022/10/01 05:32:36;;;;;;;11.88;7.10;;;;;;;9.11;95.95;97679.97;4190564;28;20278;-83
2022/10/01 05:34:39;;;;;;;6.78;5.90;;;;;;;9.14;95.96;97681.53;4191041;28;20308;-83
2022/10/01 05:37:02;;;;;;;7.25;5.43;;;;;;;9.20;96.17;97673.28;4192463;28;20225;-83
2022/10/01 05:39:05;;;;;;;6.78;5.40;;;;;;;9.28;96.01;97674.44;4196278;28;20214;-83
2022/10/01 05:41:09;;;;;;;8.43;3.92;;;;;;;9.42;96.79;97685.53;4174053;28;20229;-83
2022/10/01 05:43:12;;;;;;;5.15;4.10;;;;;;;9.57;96.86;97681.03;4190391;28;20209;-83
2022/10/01 05:45:21;;;;;;;4.05;3.42;;;;;;;9.70;95.44;97679.22;4196918;28;20208;-83
2022/10/01 05:47:25;;;;;;;4.28;2.85;;;;;;;9.86;95.20;97680.59;4178241;28;20222;-83
2022/10/01 05:49:28;;;;;;;3.70;2.50;;;;;;;9.99;94.67;97677.03;4178620;28;20202;-83
2022/10/01 05:51:31;;;;;;;2.57;2.37;;;;;;;10.12;95.01;97677.81;4175688;28;20587;-83
2022/10/01 05:53:37;;;;;;;2.37;2.07;;;;;;;10.26;94.63;97672.41;4203399;28;21025;-83
2022/10/01 05:55:40;;;;;;;3.85;2.30;;;;;;;10.38;93.03;97666.28;4184651;28;20613;-84
2022/10/01 05:57:43;;;;;;;4.18;2.00;;;;;;;10.49;93.52;97664.56;4175467;28;20198;-83
2022/10/01 05:59:46;;;;;;;2.43;2.20;;;;;;;10.58;92.55;97663.84;4195963;28;20217;-83
2022/10/01 06:01:49;;;;;;;3.87;2.13;;;;;;;10.67;92.82;97670.97;4193940;28;21237;-83
2022/10/01 06:03:52;;;;;;;2.50;2.07;;;;;;;10.75;91.71;97670.41;4190613;28;20628;-83
2022/10/01 06:05:55;;;;;;;4.63;2.40;;;;;;;10.83;91.32;97659.25;4193594;28;20627;-83
2022/10/01 06:07:59;;;;;;;4.43;2.00;;;;;;;10.92;88.97;97653.34;4194845;28;20635;-83
2022/10/01 06:10:05;;;;;;;2.70;2.13;;;;;;;10.99;90.36;97665.00;4178354;28;20616;-83
2022/10/01 06:12:08;;;;;;;2.40;2.00;;;;;;;11.05;88.86;97655.84;4193484;28;20754;-83
2022/10/01 06:14:11;;;;;;;2.20;1.63;;;;;;;11.11;89.38;97663.19;4188117;28;20641;-83
2022/10/01 06:16:15;;;;;;;2.77;1.93;;;;;;;11.15;89.92;97662.84;4193753;28;21237;-83
2022/10/01 06:18:18;;;;;;;2.27;1.97;;;;;;;11.18;89.34;97657.38;4195405;28;20660;-83
2022/10/01 06:20:22;;;;;;;2.47;2.10;;;;;;;11.22;88.82;97656.22;4185441;28;20722;-83
2022/10/01 06:22:25;;;;;;;2.80;2.10;;;;;;;11.26;87.85;97652.41;4193741;28;20713;-83
2022/10/01 06:24:30;;;;;;;2.83;2.17;;;;;;;11.27;88.50;97657.53;4193625;28;21013;-83
2022/10/01 06:26:34;;;;;;;4.17;2.07;;;;;;;11.29;89.79;97663.44;4186567;28;20689;-83
2022/10/01 06:28:37;;;;;;;4.80;2.20;;;;;;;11.31;90.85;97655.50;4190934;28;20651;-83
2022/10/01 06:30:41;;;;;;;4.00;2.17;;;;;;;11.31;89.53;97661.53;4189093;28;20962;-83
2022/10/01 06:32:44;;;;;;;3.07;2.30;;;;;;;11.27;90.83;97660.13;4183445;28;20660;-82
2022/10/01 06:34:47;;;;;;;4.70;2.77;;;;;;;11.25;91.73;97661.19;4192693;28;20639;-83
2022/10/01 06:36:50;;;;;;;3.20;2.60;;;;;;;11.27;91.32;97661.88;4191163;28;20671;-83
2022/10/01 06:38:52;;;;;;;4.40;2.30;;;;;;;11.27;92.28;97668.91;4188763;28;21201;-83
2022/10/01 06:40:57;;;;;;;6.10;2.20;;;;;;;11.26;91.57;97668.09;4193432;28;20675;-83
2022/10/01 06:43:01;;;;;;;2.90;2.20;;;;;;;11.28;91.51;97666.16;4195973;28;21090;-83
2022/10/01 06:45:05;;;;;;;2.67;2.40;;;;;;;11.31;93.54;97668.53;4194438;28;20631;-82
2022/10/01 06:47:08;;;;;;;3.53;2.43;;;;;;;11.34;91.60;97666.50;4176753;28;20634;-83
2022/10/01 06:49:12;;;;;;;3.47;2.40;;;;;;;11.33;91.53;97674.47;4192933;28;20658;-83
2022/10/01 06:52:47;;;;;;;2.77;2.20;;;;;;;11.36;93.18;97669.00;4195726;28;20737;-83
2022/10/01 06:53:37;;;;;;;3.30;2.73;;;;;;;11.40;93.45;97660.00;4194913;28;20639;-84
2022/10/01 06:55:41;;;;;;;3.67;2.27;;;;;;;11.42;93.77;97663.31;4193960;28;20619;-83
2022/10/01 06:57:44;;;;;;;5.80;2.20;;;;;;;11.44;93.53;97645.72;4188440;28;20632;-83
2022/10/01 06:59:48;;;;;;;2.60;2.40;;;;;;;11.48;94.06;97647.19;4192667;28;20616;-83
2022/10/01 07:01:52;;;;;;;3.63;2.33;;;;;;;11.53;92.87;97648.50;4194078;28;20684;-83
2022/10/01 07:03:58;;;;;;;3.17;2.40;;;;;;;11.57;93.13;97647.28;4178266;28;20702;-83
2022/10/01 07:06:02;;;;;;;3.53;2.40;;;;;;;11.60;92.34;97651.44;4175413;28;20699;-83
2022/10/01 07:08:06;;;;;;;3.40;2.40;;;;;;;11.64;92.57;97652.88;4193741;28;20629;-83
2022/10/01 07:10:10;;;;;;;2.67;2.33;;;;;;;11.69;92.93;97656.75;4190959;28;20620;-83
2022/10/01 07:12:13;;;;;;;4.70;2.40;;;;;;;11.71;93.10;97651.41;4139476;28;1098907;-83
2022/10/01 07:14:16;;;;;;;3.13;2.43;;;;;;;11.73;93.71;97650.34;4194521;28;20629;-83
2022/10/01 07:16:21;;;;;;;3.00;2.70;;;;;;;11.77;94.21;97651.75;4209372;28;20982;-83
2022/10/01 07:18:24;;;;;;;4.40;2.60;;;;;;;11.76;93.81;97653.53;4189905;28;20637;-83
2022/10/01 07:20:27;;;;;;;3.87;2.60;;;;;;;11.78;93.73;97653.41;4194473;28;21238;-83
2022/10/01 07:22:30;;;;;;;3.53;2.80;;;;;;;11.79;94.22;97657.69;4214529;28;21242;-83
2022/10/01 07:24:33;;;;;;;3.70;3.00;;;;;;;11.81;93.48;97651.38;4194732;28;20985;-83
2022/10/01 07:26:36;;;;;;;3.37;2.83;;;;;;;11.83;92.01;97659.94;4196998;28;21080;-83
2022/10/01 07:28:39;;;;;;;5.20;3.70;;;;;;;11.84;92.99;97655.53;4190661;28;20640;-83
2022/10/01 07:30:42;;;;;;;3.80;2.77;;;;;;;11.83;92.10;97657.34;4175294;28;20636;-83
2022/10/01 07:32:46;;;;;;;4.63;2.80;;;;;;;11.84;93.87;97651.13;4196299;28;20638;-83
2022/10/01 07:34:50;;;;;;;6.77;2.87;;;;;;;11.87;93.10;97650.88;4192992;28;21185;-83
2022/10/01 07:36:55;;;;;;;3.60;2.70;;;;;;;11.84;93.00;97650.31;4197916;28;21273;-83
2022/10/01 07:38:58;;;;;;;3.37;2.57;;;;;;;11.82;92.54;97642.59;4192297;28;21218;-83
2022/10/01 07:41:02;;;;;;;3.40;2.57;;;;;;;11.85;92.08;97644.97;4192721;28;20774;-83
2022/10/01 07:43:05;;;;;;;2.93;2.50;;;;;;;11.84;93.74;97645.09;4193643;28;21147;-83
2022/10/01 07:45:10;;;;;;;4.70;3.00;;;;;;;11.82;92.81;97647.81;4197258;28;21167;-83
2022/10/01 07:47:13;;;;;;;3.97;2.80;;;;;;;11.84;94.42;97635.47;4178047;28;20636;-83
2022/10/01 07:49:18;;;;;;;3.63;2.60;;;;;;;11.87;94.52;97637.81;4193939;28;20734;-83
2022/10/01 07:51:21;;;;;;;2.67;2.37;;;;;;;11.88;93.07;97641.28;4190360;28;20640;-83
2022/10/01 07:53:24;;;;;;;2.67;2.40;;;;;;;11.87;93.59;97650.88;4185572;28;21068;-83
2022/10/01 07:55:29;;;;;;;2.43;2.00;;;;;;;11.88;93.92;97649.94;4189311;28;20635;-83
2022/10/01 07:57:33;;;;;;;2.40;2.10;;;;;;;11.88;93.21;97652.56;4179490;28;20662;-83
2022/10/01 07:59:37;;;;;;;2.80;2.40;;;;;;;11.89;94.63;97653.38;4197066;28;20639;-83
2022/10/01 08:01:40;;;;;;;2.80;2.33;;;;;;;11.91;93.46;97654.94;4210896;28;20651;-83
2022/10/01 08:03:43;;;;;;;5.27;2.97;;;;;;;11.91;93.79;97651.50;4191387;28;20673;-83
2022/10/01 08:05:48;;;;;;;3.30;2.40;;;;;;;11.92;93.98;97653.97;4187472;28;20714;-83
2022/10/01 08:07:51;;;;;;;3.20;2.67;;;;;;;11.95;93.49;97658.13;4187489;28;20731;-83
2022/10/01 08:09:55;;;;;;;5.30;3.33;;;;;;;11.96;93.94;97657.16;4188626;28;20619;-84
2022/10/01 08:11:58;;;;;;;3.17;2.87;;;;;;;11.98;94.15;97648.25;4192152;28;20675;-83
2022/10/01 08:14:02;;;;;;;3.13;2.50;;;;;;;11.99;92.97;97651.69;4175281;28;20644;-83
2022/10/01 08:16:06;;;;;;;13.40;3.03;;;;;;;11.98;94.29;97653.50;4189172;28;20616;-83
2022/10/01 08:18:10;;;;;;;3.10;2.80;;;;;;;12.00;95.06;97656.81;4178799;28;20628;-83
2022/10/01 08:20:14;;;;;;;6.33;3.17;;;;;;;12.01;94.47;97649.78;4188036;28;20738;-83
2022/10/01 08:22:18;;;;;;;2.90;2.60;;;;;;;12.00;94.98;97653.38;4179073;28;20661;-83
2022/10/01 08:24:21;;;;;;;4.57;3.17;;;;;;;12.00;93.86;97658.59;4190518;28;20661;-83
2022/10/01 08:26:24;;;;;;;4.10;3.67;;;;;;;12.01;95.51;97663.69;4186458;28;20694;-82
2022/10/01 08:28:28;;;;;;;3.70;3.03;;;;;;;12.02;96.23;97665.34;4192388;28;21202;-83
2022/10/01 08:30:31;;;;;;;4.70;3.20;;;;;;;12.03;95.08;97661.78;4189216;28;20992;-83
2022/10/01 08:32:34;;;;;;;5.17;3.80;;;;;;;12.03;95.52;97661.78;4179792;28;21171;-83
2022/10/01 08:34:37;;;;;;;3.90;3.53;;;;;;;12.04;94.77;97660.84;4192479;28;20662;-83
2022/10/01 08:36:40;;;;;;;4.37;3.00;;;;;;;12.03;94.32;97674.03;4192533;28;20659;-83
2022/10/01 08:38:47;;;;;;;5.07;3.67;;;;;;;12.01;94.78;97668.06;4192956;28;20754;-84
2022/10/01 08:40:50;;;;;;;3.63;3.00;;;;;;;12.02;96.84;97680.19;4191657;28;20747;-83
2022/10/01 08:42:58;;;;;;;3.43;3.00;;;;;;;12.02;95.51;97673.19;4193389;28;21043;-84
2022/10/01 08:45:05;;;;;;;4.73;3.37;;;;;;;12.02;95.56;97670.56;4194113;28;20650;-83
2022/10/01 08:47:13;;;;;;;3.80;3.03;;;;;;;12.02;95.85;97673.19;4178407;28;20635;-83
2022/10/01 08:49:20;;;;;;;3.77;3.10;;;;;;;12.03;95.98;97669.63;4179582;28;20986;-84
2022/10/01 08:51:27;;;;;;;3.40;3.10;;;;;;;12.04;97.19;97668.69;4191028;28;20623;-84
2022/10/01 08:53:35;;;;;;;4.43;3.93;;;;;;;12.04;95.63;97675.66;4183664;28;20674;-84
2022/10/01 08:55:40;;;;;;;6.63;3.60;;;;;;;12.02;96.48;97669.75;4194183;28;20626;-83
2022/10/01 08:57:48;;;;;;;3.80;3.10;;;;;;;12.01;96.21;97673.31;4182651;28;20700;-82
2022/10/01 08:59:54;;;;;;;6.07;3.43;;;;;;;11.99;95.90;97664.75;4189960;28;21263;-83
2022/10/01 09:01:58;;;;;;;3.70;3.30;;;;;;;12.00;96.48;97669.88;4188334;28;20654;-84
2022/10/01 09:04:01;;;;;;;9.03;4.17;;;;;;;12.00;97.72;97661.22;4165127;28;20743;-84
2022/10/01 09:06:14;;;;;;;3.93;3.53;;;;;;;12.01;97.40;97666.31;4189386;28;20635;-86
2022/10/01 09:08:22;;;;;;;9.07;3.40;;;;;;;12.01;97.48;97673.31;4196364;28;20641;-85
2022/10/01 09:10:35;;;;;;;6.63;4.50;;;;;;;12.02;96.68;97673.19;4187422;28;21220;-85
2022/10/01 09:12:45;;;;;;;5.50;4.00;;;;;;;12.01;96.80;97673.31;4192747;28;20667;-84
2022/10/01 09:15:04;;;;;;;8.13;4.47;;;;;;;12.01;96.37;97678.53;4185347;28;20664;-86
2022/10/01 09:17:14;;;;;;;4.33;3.83;;;;;;;12.02;97.69;97681.03;4193015;28;20620;-85
2022/10/01 09:19:31;;;;;;;6.27;4.30;;;;;;;12.02;98.73;97674.97;4188521;28;21051;-85
2022/10/01 09:21:49;;;;;;;5.93;3.80;;;;;;;12.03;97.52;97681.88;4188321;28;20659;-86
2022/10/01 09:24:03;;;;;;;4.80;4.13;;;;;;;12.01;96.55;97679.38;4186403;28;20620;-83
2022/10/01 09:26:12;;;;;;;4.83;3.90;;;;;;;12.01;98.36;97675.91;4171579;28;20714;-83
2022/10/01 09:28:19;;;;;;;4.70;3.93;;;;;;;12.04;98.14;97670.44;4190393;28;20642;-83
2022/10/01 09:30:25;;;;;;;4.80;4.30;;;;;;;12.04;98.61;97666.06;4173309;28;20640;-83
2022/10/01 09:32:38;;;;;;;6.20;3.73;;;;;;;12.06;98.73;97661.53;4193600;28;20698;-82
2022/10/01 09:34:43;;;;;;;5.77;3.70;;;;;;;12.09;97.83;97666.50;4190555;28;20702;-83
2022/10/01 09:36:56;;;;;;;4.63;3.80;;;;;;;12.12;97.25;97660.19;4171824;28;21208;-83
2022/10/01 09:39:10;;;;;;;4.73;4.23;;;;;;;12.12;98.83;97665.41;4189906;28;21057;-84
2022/10/01 09:41:13;;;;;;;4.60;3.57;;;;;;;12.14;99.09;97669.56;4186654;28;20671;-84
2022/10/01 09:43:18;;;;;;;3.80;3.40;;;;;;;12.16;98.27;97667.66;4187586;28;20639;-86
2022/10/01 09:45:23;;;;;;;4.60;3.90;;;;;;;12.18;99.25;97672.75;4189758;28;20700;-82
2022/10/01 09:47:26;;;;;;;4.47;3.60;;;;;;;12.19;99.15;97677.88;4187795;28;20678;-82
2022/10/01 09:49:32;;;;;;;4.83;3.47;;;;;;;12.20;98.85;97687.38;4171787;28;20706;-83
2022/10/01 09:51:40;;;;;;;5.80;3.70;;;;;;;12.23;98.10;97690.56;4185417;28;20643;-83